createdAt,value
2018-03-12T00:01:53.574Z,73.80
2018-03-12T00:04:19.785Z,74.10
2018-03-12T00:06:46.145Z,74.40
2018-03-12T00:09:12.378Z,73.80
2018-03-12T00:11:38.638Z,74.30
2018-03-12T00:14:04.999Z,74.50
2018-03-12T00:16:31.969Z,75.60
2018-03-12T00:18:58.278Z,74.70
2018-03-12T00:21:24.501Z,74.80
2018-03-12T00:23:50.707Z,74.80
2018-03-12T00:26:17.122Z,75.10
2018-03-12T00:28:44.101Z,74.90
2018-03-12T00:31:10.361Z,74.90
2018-03-12T00:33:36.623Z,75.40
2018-03-12T00:36:02.878Z,75.30
2018-03-12T00:38:29.101Z,75.40
2018-03-12T00:40:55.325Z,75.30
2018-03-12T00:43:21.506Z,74.90
2018-03-12T00:45:47.857Z,75.00
2018-03-12T00:48:14.027Z,75.10
2018-03-12T00:50:41.148Z,75.40
2018-03-12T00:53:07.330Z,75.40
2018-03-12T00:55:33.548Z,75.80
2018-03-12T00:57:59.922Z,76.70
2018-03-12T01:00:26.198Z,76.60
2018-03-12T01:02:52.457Z,76.70
2018-03-12T01:05:18.779Z,76.60
2018-03-12T01:07:45.002Z,78.80
2018-03-12T01:10:11.354Z,79.00
2018-03-12T01:12:37.592Z,78.30
2018-03-12T01:15:03.794Z,78.60
2018-03-12T01:17:30.137Z,78.60
2018-03-12T01:19:57.084Z,79.00
2018-03-12T01:22:24.992Z,78.70
2018-03-12T01:24:51.931Z,79.00
2018-03-12T01:27:18.488Z,79.00
2018-03-12T01:29:44.988Z,79.50
2018-03-12T01:32:11.262Z,79.80
2018-03-12T01:34:37.469Z,80.30
2018-03-12T01:37:03.673Z,80.30
2018-03-12T01:39:30.123Z,79.80
2018-03-12T01:41:56.411Z,79.70
2018-03-12T01:44:23.035Z,79.30
2018-03-12T01:46:52.640Z,79.60
2018-03-12T01:49:18.935Z,79.40
2018-03-12T01:51:45.277Z,79.40
2018-03-12T01:54:12.473Z,80.10
2018-03-12T01:56:38.708Z,79.70
2018-03-12T01:59:05.766Z,80.10
2018-03-12T02:01:32.827Z,81.40
2018-03-12T02:03:59.073Z,81.40
2018-03-12T02:06:25.304Z,81.30
2018-03-12T02:08:52.352Z,82.50
2018-03-12T02:11:18.582Z,82.00
2018-03-12T02:13:44.812Z,81.90
2018-03-12T02:16:12.105Z,82.00
2018-03-12T02:18:38.349Z,82.20
2018-03-12T02:21:04.560Z,82.50
2018-03-12T02:23:32.553Z,82.50
2018-03-12T02:25:59.562Z,81.40
2018-03-12T02:28:25.851Z,81.40
2018-03-12T02:30:52.507Z,81.30
2018-03-12T02:33:19.811Z,81.60
2018-03-12T02:35:46.358Z,81.50
2018-03-12T02:38:12.700Z,81.20
2018-03-12T02:40:39.642Z,81.00
2018-03-12T02:43:05.894Z,81.00
2018-03-12T02:45:32.177Z,82.10
2018-03-12T02:47:58.472Z,81.20
2018-03-12T02:50:24.659Z,81.20
2018-03-12T02:52:50.919Z,81.10
2018-03-12T02:55:17.233Z,81.50
2018-03-12T02:57:43.454Z,82.50
2018-03-12T03:00:09.867Z,81.50
2018-03-12T03:02:38.668Z,81.10
2018-03-12T03:05:05.064Z,82.30
2018-03-12T03:07:31.378Z,82.00
2018-03-12T03:09:57.588Z,82.70
2018-03-12T03:12:24.050Z,82.90
2018-03-12T03:14:50.261Z,82.70
2018-03-12T03:17:16.492Z,83.00
2018-03-12T03:19:42.737Z,82.40
2018-03-12T03:22:08.981Z,82.70
2018-03-12T03:24:35.317Z,82.80
2018-03-12T03:27:01.713Z,82.90
2018-03-12T03:29:27.944Z,82.90
2018-03-12T03:31:54.128Z,83.40
2018-03-12T03:34:20.529Z,82.90
2018-03-12T03:36:46.762Z,82.70
2018-03-12T03:39:12.980Z,82.90
2018-03-12T03:41:39.286Z,82.90
2018-03-12T03:44:05.541Z,82.70
2018-03-12T03:46:31.737Z,82.70
2018-03-12T03:48:57.988Z,82.70
2018-03-12T03:51:24.948Z,82.40
2018-03-12T03:53:51.184Z,82.40
2018-03-12T03:56:17.397Z,82.90
2018-03-12T03:58:43.752Z,83.10
2018-03-12T04:01:09.963Z,83.30
2018-03-12T04:03:36.281Z,83.60
2018-03-12T04:06:02.559Z,83.20
2018-03-12T04:08:28.842Z,83.90
2018-03-12T04:10:55.083Z,83.90
2018-03-12T04:13:21.398Z,84.00
2018-03-12T04:15:47.640Z,83.90
2018-03-12T04:18:13.862Z,83.90
2018-03-12T04:20:41.070Z,84.00
2018-03-12T04:23:07.274Z,84.00
2018-03-12T04:25:33.491Z,84.00
2018-03-12T04:27:59.785Z,84.00
2018-03-12T04:30:27.040Z,83.10
2018-03-12T04:32:53.308Z,84.00
2018-03-12T04:35:19.536Z,83.10
2018-03-12T04:37:45.877Z,83.80
2018-03-12T04:40:12.192Z,83.10
2018-03-12T04:42:38.421Z,84.00
2018-03-12T04:45:04.861Z,84.00
2018-03-12T04:47:31.105Z,84.10
2018-03-12T04:49:58.327Z,83.90
2018-03-12T04:52:25.428Z,84.00
2018-03-12T04:54:51.720Z,83.90
2018-03-12T04:57:18.002Z,84.00
2018-03-12T04:59:44.215Z,84.00
2018-03-12T05:02:10.486Z,84.00
2018-03-12T05:04:36.708Z,84.80
2018-03-12T05:07:03.746Z,84.00
2018-03-12T05:09:29.980Z,84.00
2018-03-12T05:11:56.295Z,84.50
2018-03-12T05:14:22.485Z,83.30
2018-03-12T05:16:48.813Z,83.20
2018-03-12T05:19:15.027Z,83.10
2018-03-12T05:21:41.498Z,83.20
2018-03-12T05:24:07.847Z,83.10
2018-03-12T05:26:34.097Z,83.10
2018-03-12T05:29:01.163Z,83.10
2018-03-12T05:31:27.418Z,83.10
2018-03-12T05:33:53.850Z,83.20
2018-03-12T05:36:20.118Z,83.50
2018-03-12T05:38:46.394Z,83.70
2018-03-12T05:41:12.649Z,83.50
2018-03-12T05:43:38.887Z,84.90
2018-03-12T05:46:05.149Z,84.80
2018-03-12T05:48:32.277Z,84.80
2018-03-12T05:50:58.528Z,84.90
2018-03-12T05:53:24.781Z,84.90
2018-03-12T05:55:51.825Z,84.80
2018-03-12T05:58:18.113Z,84.90
2018-03-12T06:00:44.435Z,85.10
2018-03-12T06:03:10.654Z,85.10
2018-03-12T06:05:36.929Z,85.20
2018-03-12T06:08:03.917Z,84.90
2018-03-12T06:10:30.171Z,84.90
2018-03-12T06:12:56.591Z,85.20
2018-03-12T06:15:22.830Z,85.00
2018-03-12T06:17:49.060Z,84.80
2018-03-12T06:20:15.635Z,85.10
2018-03-12T06:22:41.893Z,84.80
2018-03-12T06:25:08.156Z,85.10
2018-03-12T06:27:34.625Z,85.20
2018-03-12T06:30:00.845Z,85.30
2018-03-12T06:32:27.045Z,84.40
2018-03-12T06:34:53.304Z,84.80
2018-03-12T06:37:19.516Z,85.30
2018-03-12T06:39:46.841Z,85.20
2018-03-12T06:42:13.129Z,85.30
2018-03-12T06:44:39.462Z,85.20
2018-03-12T06:47:06.478Z,85.10
2018-03-12T06:49:33.786Z,85.10
2018-03-12T06:52:00.092Z,85.10
2018-03-12T06:54:26.397Z,85.30
2018-03-12T06:56:53.408Z,86.00
2018-03-12T06:59:19.665Z,85.20
2018-03-12T07:01:45.972Z,85.70
2018-03-12T07:04:12.193Z,85.10
2018-03-12T07:06:38.428Z,85.00
2018-03-12T07:09:05.402Z,85.30
2018-03-12T07:11:31.652Z,85.30
2018-03-12T07:13:58.085Z,85.30
2018-03-12T07:16:24.296Z,85.00
2018-03-12T07:18:50.608Z,85.20
2018-03-12T07:21:16.809Z,85.20
2018-03-12T07:23:43.092Z,85.20
2018-03-12T07:26:09.519Z,85.40
2018-03-12T07:28:35.766Z,85.30
2018-03-12T07:31:01.972Z,84.40
2018-03-12T07:33:28.441Z,84.70
2018-03-12T07:35:54.709Z,85.10
2018-03-12T07:38:21.740Z,84.90
2018-03-12T07:40:48.048Z,84.90
2018-03-12T07:43:14.337Z,84.90
2018-03-12T07:45:40.553Z,85.70
2018-03-12T07:48:06.971Z,84.60
2018-03-12T07:50:33.196Z,85.10
2018-03-12T07:53:00.189Z,84.80
2018-03-12T07:55:26.399Z,84.80
2018-03-12T07:57:53.649Z,84.30
2018-03-12T08:00:20.618Z,85.00
2018-03-12T08:02:46.906Z,84.70
2018-03-12T08:05:13.180Z,84.00
2018-03-12T08:07:39.404Z,84.00
2018-03-12T08:10:05.618Z,83.70
2018-03-12T08:12:31.902Z,83.40
2018-03-12T08:14:58.205Z,84.10
2018-03-12T08:17:24.504Z,84.30
2018-03-12T08:19:50.760Z,83.80
2018-03-12T08:22:17.118Z,84.00
2018-03-12T08:24:43.401Z,83.10
2018-03-12T08:27:09.850Z,83.30
2018-03-12T08:29:36.212Z,83.10
2018-03-12T08:32:02.409Z,82.80
2018-03-12T08:34:29.174Z,83.10
2018-03-12T08:36:56.270Z,83.10
2018-03-12T08:39:22.517Z,83.10
2018-03-12T08:41:49.477Z,83.30
2018-03-12T08:44:15.952Z,83.20
2018-03-12T08:46:42.238Z,83.20
2018-03-12T08:49:08.522Z,83.20
2018-03-12T08:51:34.780Z,82.90
2018-03-12T08:54:01.089Z,82.20
2018-03-12T08:56:27.351Z,82.30
2018-03-12T08:58:53.573Z,82.70
2018-03-12T09:01:19.900Z,82.60
2018-03-12T09:03:46.149Z,82.60
2018-03-12T09:06:12.422Z,83.10
2018-03-12T09:08:38.912Z,82.30
2018-03-12T09:11:05.171Z,82.10
2018-03-12T09:13:31.416Z,82.20
2018-03-12T09:15:57.750Z,82.90
2018-03-12T09:18:24.027Z,82.80
2018-03-12T09:20:50.999Z,81.80
2018-03-12T09:23:17.277Z,81.80
2018-03-12T09:25:43.733Z,81.80
2018-03-12T09:28:10.814Z,83.20
2018-03-12T09:30:39.113Z,83.20
2018-03-12T09:33:05.360Z,82.70
2018-03-12T09:35:32.523Z,83.40
2018-03-12T09:37:58.773Z,83.40
2018-03-12T09:40:25.740Z,82.60
2018-03-12T09:42:51.985Z,82.60
2018-03-12T09:45:18.343Z,82.50
2018-03-12T09:47:44.612Z,83.00
2018-03-12T09:50:10.832Z,82.80
2018-03-12T09:52:37.226Z,83.00
2018-03-12T09:55:03.626Z,82.90
2018-03-12T09:57:30.833Z,81.90
2018-03-12T09:59:57.181Z,81.90
2018-03-12T10:02:24.341Z,82.40
2018-03-12T10:04:50.626Z,82.30
2018-03-12T10:07:17.998Z,82.00
2018-03-12T10:09:44.398Z,83.00
2018-03-12T10:12:10.611Z,83.60
2018-03-12T10:14:36.832Z,83.10
2018-03-12T10:17:03.756Z,82.70
2018-03-12T10:19:32.065Z,83.30
2018-03-12T10:21:58.830Z,83.30
2018-03-12T10:24:25.113Z,83.70
2018-03-12T10:26:51.341Z,82.90
2018-03-12T10:29:17.886Z,83.60
2018-03-12T10:31:44.178Z,83.60
2018-03-12T10:34:11.161Z,83.70
2018-03-12T10:36:37.585Z,83.70
2018-03-12T10:39:03.941Z,83.40
2018-03-12T10:41:30.160Z,83.10
2018-03-12T10:43:57.108Z,82.90
2018-03-12T10:46:23.520Z,82.90
2018-03-12T10:48:49.765Z,82.60
2018-03-12T10:51:16.053Z,82.80
2018-03-12T10:53:43.196Z,80.20
2018-03-12T10:56:09.394Z,80.20
2018-03-12T10:58:35.770Z,82.10
2018-03-12T11:01:02.052Z,81.30
2018-03-12T11:03:32.451Z,80.30
2018-03-12T11:06:01.764Z,80.30
2018-03-12T11:08:28.045Z,80.90
2018-03-12T11:10:54.349Z,80.10
2018-03-12T11:13:20.596Z,81.00
2018-03-12T11:15:47.118Z,77.60
2018-03-12T11:18:13.453Z,75.80
2018-03-12T11:20:39.735Z,77.20
2018-03-12T11:23:06.034Z,76.00
2018-03-12T11:25:32.439Z,75.70
2018-03-12T11:27:59.537Z,76.70
2018-03-12T11:30:26.501Z,77.00
2018-03-12T11:32:52.731Z,77.00
2018-03-12T11:35:19.404Z,75.10
2018-03-12T11:37:45.618Z,74.70
2018-03-12T11:40:12.137Z,75.30
2018-03-12T11:42:38.655Z,73.70
2018-03-12T11:45:04.947Z,73.30
2018-03-12T11:47:31.220Z,73.00
2018-03-12T11:49:57.658Z,71.30
2018-03-12T11:52:23.922Z,74.30
2018-03-12T11:54:50.181Z,73.10
2018-03-12T11:57:16.556Z,72.50
2018-03-12T11:59:42.931Z,71.70
2018-03-12T12:02:09.111Z,72.00
2018-03-12T12:04:35.473Z,72.30
2018-03-12T12:07:01.756Z,71.80
2018-03-12T12:09:28.043Z,70.60
2018-03-12T12:11:54.338Z,68.60
2018-03-12T12:14:20.617Z,69.10
2018-03-12T12:16:46.889Z,69.40
2018-03-12T12:19:13.134Z,69.10
2018-03-12T12:21:39.393Z,65.90
2018-03-12T12:24:05.649Z,66.30
2018-03-12T12:26:32.041Z,66.20
2018-03-12T12:28:58.403Z,65.30
2018-03-12T12:31:24.625Z,63.10
2018-03-12T12:33:50.908Z,62.90
2018-03-12T12:36:17.370Z,60.80
2018-03-12T12:38:43.669Z,61.90
2018-03-12T12:41:09.978Z,60.70
2018-03-12T12:43:36.297Z,60.70
2018-03-12T12:46:03.265Z,59.50
2018-03-12T12:48:29.547Z,59.50
2018-03-12T12:50:56.572Z,59.80
2018-03-12T12:53:23.141Z,59.80
2018-03-12T12:55:49.393Z,57.90
2018-03-12T12:58:15.623Z,59.00
2018-03-12T13:00:42.988Z,57.80
2018-03-12T13:03:09.289Z,56.80
2018-03-12T13:05:35.539Z,56.10
2018-03-12T13:08:02.007Z,56.00
2018-03-12T13:10:28.389Z,56.10
2018-03-12T13:12:55.376Z,55.50
2018-03-12T13:15:21.701Z,55.40
2018-03-12T13:17:48.077Z,55.80
2018-03-12T13:20:14.349Z,53.60
2018-03-12T13:22:40.625Z,53.80
2018-03-12T13:25:06.924Z,55.30
2018-03-12T13:27:33.381Z,53.00
2018-03-12T13:29:59.696Z,52.00
2018-03-12T13:32:25.913Z,53.10
2018-03-12T13:34:52.172Z,51.40
2018-03-12T13:37:18.509Z,50.10
2018-03-12T13:39:44.785Z,50.50
2018-03-12T13:42:11.133Z,50.90
2018-03-12T13:44:37.369Z,50.30
2018-03-12T13:47:03.828Z,47.90
2018-03-12T13:49:30.107Z,48.80
2018-03-12T13:51:56.469Z,48.80
2018-03-12T13:54:22.749Z,48.40
2018-03-12T13:56:49.156Z,47.70
2018-03-12T13:59:15.381Z,47.50
2018-03-12T14:01:42.438Z,48.00
2018-03-12T14:04:08.841Z,48.30
2018-03-12T14:06:35.057Z,48.80
2018-03-12T14:09:01.293Z,49.00
2018-03-12T14:11:27.534Z,46.10
2018-03-12T14:13:53.920Z,45.30
2018-03-12T14:16:20.165Z,45.60
2018-03-12T14:18:46.439Z,46.90
2018-03-12T14:21:12.696Z,46.80
2018-03-12T14:23:38.999Z,46.80
2018-03-12T14:26:05.246Z,46.80
2018-03-12T14:28:32.373Z,47.70
2018-03-12T14:30:58.602Z,46.90
2018-03-12T14:33:24.833Z,46.80
2018-03-12T14:35:52.182Z,47.90
2018-03-12T14:38:19.410Z,48.80
2018-03-12T14:40:45.637Z,48.80
2018-03-12T14:43:11.850Z,48.30
2018-03-12T14:45:38.193Z,47.40
2018-03-12T14:48:04.425Z,48.10
2018-03-12T14:50:30.675Z,48.50
2018-03-12T14:52:57.792Z,48.80
2018-03-12T14:55:24.100Z,47.00
2018-03-12T14:57:50.301Z,48.60
2018-03-12T15:00:16.546Z,48.90
2018-03-12T15:02:42.876Z,49.10
2018-03-12T15:05:09.112Z,48.80
2018-03-12T15:07:35.308Z,48.70
2018-03-12T15:10:01.790Z,48.30
2018-03-12T15:12:28.005Z,47.10
2018-03-12T15:14:54.244Z,47.00
2018-03-12T15:17:20.508Z,47.40
2018-03-12T15:19:46.760Z,47.00
2018-03-12T15:22:13.708Z,47.00
2018-03-12T15:24:40.014Z,47.00
2018-03-12T15:27:06.214Z,48.00
2018-03-12T15:29:33.306Z,48.90
2018-03-12T15:31:59.530Z,48.90
2018-03-12T15:34:25.793Z,48.50
2018-03-12T15:36:51.993Z,48.80
2018-03-12T15:39:19.018Z,49.90
2018-03-12T15:41:45.350Z,49.80
2018-03-12T15:44:11.558Z,51.40
2018-03-12T15:46:37.929Z,51.70
2018-03-12T15:49:04.232Z,53.10
2018-03-12T15:51:30.421Z,53.10
2018-03-12T15:53:56.641Z,53.00
2018-03-12T15:56:22.936Z,54.00
2018-03-12T15:58:49.883Z,54.40
2018-03-12T16:01:16.121Z,53.70
2018-03-12T16:03:42.570Z,54.50
2018-03-12T16:06:08.844Z,55.20
2018-03-12T16:08:35.043Z,55.10
2018-03-12T16:11:01.272Z,55.20
2018-03-12T16:13:28.181Z,55.10
2018-03-12T16:15:54.423Z,56.50
2018-03-12T16:18:21.379Z,57.50
2018-03-12T16:20:48.721Z,57.50
2018-03-12T16:23:14.985Z,58.10
2018-03-12T16:25:43.023Z,60.60
2018-03-12T16:28:09.271Z,60.60
2018-03-12T16:30:35.637Z,61.00
2018-03-12T16:33:01.885Z,60.90
2018-03-12T16:35:28.875Z,63.20
2018-03-12T16:37:55.174Z,63.20
2018-03-12T16:40:22.707Z,63.80
2018-03-12T16:42:48.966Z,63.10
2018-03-12T16:45:15.206Z,63.50
2018-03-12T16:47:41.482Z,63.40
2018-03-12T16:50:08.570Z,62.70
2018-03-12T16:52:34.838Z,62.70
2018-03-12T16:55:01.321Z,62.80
2018-03-12T16:57:27.691Z,63.30
2018-03-12T16:59:53.970Z,63.60
2018-03-12T17:02:20.348Z,63.60
2018-03-12T17:04:46.820Z,63.60
2018-03-12T17:07:13.037Z,62.40
2018-03-12T17:09:39.293Z,63.50
2018-03-12T17:12:06.266Z,64.10
2018-03-12T17:14:32.759Z,63.40
2018-03-12T17:16:59.034Z,63.40
2018-03-12T17:19:26.041Z,64.40
2018-03-12T17:21:52.482Z,63.60
2018-03-12T17:24:18.724Z,64.20
2018-03-12T17:26:46.136Z,64.40
2018-03-12T17:29:12.363Z,65.20
2018-03-12T17:31:38.625Z,65.90
2018-03-12T17:34:04.865Z,66.80
2018-03-12T17:36:31.110Z,66.90
2018-03-12T17:38:59.186Z,66.10
2018-03-12T17:41:25.397Z,66.30
2018-03-12T17:43:51.584Z,66.60
2018-03-12T17:46:17.809Z,66.80
2018-03-12T17:48:44.342Z,66.90
2018-03-12T17:51:10.546Z,66.80
2018-03-12T17:53:36.851Z,66.60
2018-03-12T17:56:03.245Z,67.00
2018-03-12T17:58:29.729Z,66.70
2018-03-12T18:00:55.953Z,66.90
2018-03-12T18:03:22.360Z,66.30
2018-03-12T18:05:48.563Z,66.80
2018-03-12T18:08:14.904Z,67.20
2018-03-12T18:10:41.220Z,66.90
2018-03-12T18:13:07.445Z,67.40
2018-03-12T18:15:33.790Z,66.70
2018-03-12T18:18:00.122Z,66.40
2018-03-12T18:20:26.422Z,65.80
2018-03-12T18:22:52.622Z,66.80
2018-03-12T18:25:18.945Z,65.80
2018-03-12T18:27:45.157Z,66.00
2018-03-12T18:30:11.390Z,66.20
2018-03-12T18:32:37.758Z,66.30
2018-03-12T18:35:04.888Z,67.60
2018-03-12T18:37:31.167Z,67.60
2018-03-12T18:39:57.501Z,67.10
2018-03-12T18:42:23.892Z,67.10
2018-03-12T18:44:50.140Z,66.90
2018-03-12T18:47:16.340Z,66.60
2018-03-12T18:49:43.347Z,67.40
2018-03-12T18:52:09.547Z,67.30
2018-03-12T18:54:36.919Z,67.40
2018-03-12T18:57:03.165Z,66.80
2018-03-12T18:59:29.445Z,67.10
2018-03-12T19:01:55.671Z,66.80
2018-03-12T19:04:21.845Z,67.00
2018-03-12T19:06:49.286Z,66.10
2018-03-12T19:09:15.496Z,66.00
2018-03-12T19:11:41.726Z,66.40
2018-03-12T19:14:08.074Z,66.30
2018-03-12T19:16:34.372Z,65.40
2018-03-12T19:19:00.563Z,65.20
2018-03-12T19:21:26.856Z,65.00
2018-03-12T19:23:53.596Z,64.40
2018-03-12T19:26:19.805Z,64.20
2018-03-12T19:28:45.988Z,64.20
2018-03-12T19:31:12.385Z,64.10
2018-03-12T19:33:38.580Z,63.10
2018-03-12T19:36:04.811Z,64.20
2018-03-12T19:38:34.766Z,63.20
2018-03-12T19:41:02.612Z,63.20
2018-03-12T19:43:28.906Z,63.20
2018-03-12T19:45:55.135Z,63.20
2018-03-12T19:48:21.338Z,63.20
2018-03-12T19:50:48.120Z,63.20
2018-03-12T19:53:14.318Z,63.10
2018-03-12T19:55:40.532Z,63.00
2018-03-12T19:58:06.857Z,62.10
2018-03-12T20:00:33.872Z,61.40
2018-03-12T20:03:00.125Z,61.30
2018-03-12T20:05:26.345Z,60.70
2018-03-12T20:07:52.816Z,59.80
2018-03-12T20:10:20.896Z,58.60
2018-03-12T20:13:00.736Z,58.30
2018-03-12T20:18:36.516Z,57.10
2018-03-12T20:21:02.787Z,57.40
2018-03-12T20:23:28.997Z,58.10
2018-03-12T20:25:56.024Z,57.20
2018-03-12T20:28:23.240Z,57.20
2018-03-12T20:30:49.462Z,57.10
2018-03-12T20:33:15.909Z,57.00
2018-03-12T20:35:42.120Z,57.20
2018-03-12T20:38:08.770Z,57.60
2018-03-12T20:40:34.991Z,57.00
2018-03-12T20:43:01.362Z,57.10
2018-03-12T20:45:27.625Z,57.10
2018-03-12T20:47:53.848Z,57.00
2018-03-12T20:50:20.802Z,57.30
2018-03-12T20:52:47.232Z,57.30
2018-03-12T20:55:13.448Z,56.80
2018-03-12T20:57:39.914Z,57.40
2018-03-12T21:00:06.117Z,56.90
2018-03-12T21:02:32.394Z,56.70
2018-03-12T21:04:58.730Z,57.00
2018-03-12T21:07:24.957Z,56.60
2018-03-12T21:09:51.199Z,56.90
2018-03-12T21:12:19.448Z,56.80
2018-03-12T21:14:45.805Z,56.50
2018-03-12T21:17:12.787Z,56.70
2018-03-12T21:19:39.149Z,56.70
2018-03-12T21:22:05.388Z,56.70
2018-03-12T21:24:31.657Z,56.10
2018-03-12T21:26:57.997Z,56.40
2018-03-12T21:29:24.955Z,56.50
2018-03-12T21:31:52.132Z,56.90
2018-03-12T21:34:18.365Z,56.40
2018-03-12T21:36:45.321Z,56.00
2018-03-12T21:39:11.533Z,56.10
2018-03-12T21:41:37.867Z,55.80
2018-03-12T21:44:04.353Z,55.80
2018-03-12T21:46:31.342Z,56.20
2018-03-12T21:48:57.749Z,56.20
2018-03-12T21:51:24.017Z,56.20
2018-03-12T21:53:50.284Z,56.50
2018-03-12T21:56:16.681Z,56.40
2018-03-12T21:58:42.926Z,56.50
2018-03-12T22:01:09.868Z,57.10
2018-03-12T22:03:36.204Z,57.10
2018-03-12T22:06:02.632Z,56.70
2018-03-12T22:08:28.865Z,57.10
2018-03-12T22:10:55.087Z,56.70
2018-03-12T22:13:21.307Z,56.80
2018-03-12T22:15:47.685Z,56.70
2018-03-12T22:18:13.890Z,56.60
2018-03-12T22:20:40.324Z,56.70
2018-03-12T22:23:06.563Z,57.10
2018-03-12T22:25:32.855Z,57.70
2018-03-12T22:27:59.403Z,58.20
2018-03-12T22:30:25.640Z,58.20
2018-03-12T22:32:51.897Z,58.60
2018-03-12T22:35:18.125Z,58.60
2018-03-12T22:37:44.400Z,58.60
2018-03-12T22:40:10.647Z,58.40
2018-03-12T22:42:36.877Z,58.30
2018-03-12T22:45:03.137Z,58.60
2018-03-12T22:47:29.397Z,58.70
2018-03-12T22:49:56.326Z,58.60
2018-03-12T22:52:22.720Z,58.50
2018-03-12T22:54:48.895Z,58.80
2018-03-12T22:57:15.121Z,59.20
2018-03-12T22:59:41.546Z,59.00
2018-03-12T23:02:07.795Z,59.40
2018-03-12T23:04:34.028Z,59.00
2018-03-12T23:07:00.757Z,59.20
2018-03-12T23:09:27.065Z,59.20
2018-03-12T23:11:53.343Z,59.30
2018-03-12T23:14:19.669Z,59.10
2018-03-12T23:16:45.926Z,59.60
2018-03-12T23:19:12.901Z,59.70
2018-03-12T23:21:39.898Z,59.90
2018-03-12T23:24:06.264Z,60.00
2018-03-12T23:26:32.521Z,59.80
2018-03-12T23:28:58.957Z,59.80
2018-03-12T23:31:25.303Z,60.10
2018-03-12T23:33:52.394Z,59.70
2018-03-12T23:36:18.775Z,59.60
2018-03-12T23:38:45.033Z,59.90
2018-03-12T23:41:11.324Z,59.90
2018-03-12T23:43:37.522Z,59.70
2018-03-12T23:46:03.894Z,59.40
2018-03-12T23:48:30.329Z,59.90
2018-03-12T23:50:56.549Z,59.80
2018-03-12T23:53:22.795Z,59.80
2018-03-12T23:55:49.197Z,60.00
2018-03-12T23:58:15.431Z,59.70
